createdAt,value
2018-05-25T00:00:22.286Z,0.00
2018-05-25T00:01:22.288Z,0.00
2018-05-25T00:02:22.287Z,0.00
2018-05-25T00:03:22.276Z,0.00
2018-05-25T00:04:22.269Z,0.00
2018-05-25T00:05:22.306Z,0.00
2018-05-25T00:06:22.253Z,0.00
2018-05-25T00:07:22.265Z,0.00
2018-05-25T00:08:22.253Z,0.00
2018-05-25T00:09:22.249Z,0.00
2018-05-25T00:10:22.263Z,0.00
2018-05-25T00:11:22.242Z,0.00
2018-05-25T00:12:22.237Z,0.00
2018-05-25T00:13:22.234Z,0.00
2018-05-25T00:14:22.223Z,0.00
2018-05-25T00:15:22.221Z,0.00
2018-05-25T00:16:22.218Z,0.00
2018-05-25T00:17:22.212Z,0.00
2018-05-25T00:18:22.211Z,0.00
2018-05-25T00:19:22.205Z,0.00
2018-05-25T00:20:22.216Z,0.00
2018-05-25T00:21:22.196Z,0.00
2018-05-25T00:22:22.206Z,0.00
2018-05-25T00:23:22.192Z,0.00
2018-05-25T00:24:22.183Z,0.00
2018-05-25T00:25:22.180Z,0.00
2018-05-25T00:26:22.176Z,0.00
2018-05-25T00:27:22.168Z,0.00
2018-05-25T00:28:22.157Z,0.00
2018-05-25T00:29:22.161Z,0.00
2018-05-25T00:30:22.158Z,0.00
2018-05-25T00:31:22.140Z,0.00
2018-05-25T00:32:22.144Z,0.00
2018-05-25T00:33:22.144Z,0.00
2018-05-25T00:34:22.146Z,0.00
2018-05-25T00:35:22.125Z,0.00
2018-05-25T00:36:22.132Z,0.00
2018-05-25T00:37:22.129Z,0.00
2018-05-25T00:38:22.126Z,0.00
2018-05-25T00:39:22.142Z,0.00
2018-05-25T00:40:22.143Z,0.00
2018-05-25T00:41:22.110Z,0.00
2018-05-25T00:42:22.112Z,0.00
2018-05-25T00:43:22.110Z,0.00
2018-05-25T00:44:22.101Z,0.00
2018-05-25T00:45:22.098Z,0.00
2018-05-25T00:46:22.090Z,0.00
2018-05-25T00:47:22.087Z,0.00
2018-05-25T00:48:22.082Z,0.00
2018-05-25T00:49:22.079Z,0.00
2018-05-25T00:50:22.102Z,0.00
2018-05-25T00:51:22.064Z,0.00
2018-05-25T00:52:22.066Z,0.00
2018-05-25T00:53:22.059Z,0.00
2018-05-25T00:54:22.055Z,0.00
2018-05-25T00:55:22.050Z,0.00
2018-05-25T00:56:22.048Z,0.00
2018-05-25T00:57:22.045Z,0.00
2018-05-25T00:58:22.052Z,0.00
2018-05-25T00:59:22.034Z,0.00
2018-05-25T01:00:22.050Z,0.00
2018-05-25T01:01:23.209Z,0.00
2018-05-25T01:02:22.036Z,0.00
2018-05-25T01:03:22.017Z,0.00
2018-05-25T01:04:22.015Z,0.00
2018-05-25T01:05:22.011Z,0.00
2018-05-25T01:06:22.015Z,0.00
2018-05-25T01:07:22.006Z,0.00
2018-05-25T01:08:21.998Z,0.00
2018-05-25T01:09:21.987Z,0.00
2018-05-25T01:10:21.987Z,0.00
2018-05-25T01:11:21.985Z,0.00
2018-05-25T01:12:21.983Z,0.00
2018-05-25T01:13:21.983Z,0.00
2018-05-25T01:14:21.981Z,0.00
2018-05-25T01:15:21.965Z,0.00
2018-05-25T01:16:21.965Z,0.00
2018-05-25T01:17:21.961Z,0.00
2018-05-25T01:18:21.952Z,0.00
2018-05-25T01:19:21.946Z,0.00
2018-05-25T01:20:21.944Z,0.00
2018-05-25T01:21:21.939Z,0.00
2018-05-25T01:22:21.932Z,0.00
2018-05-25T01:23:21.918Z,0.00
2018-05-25T01:24:21.921Z,0.00
2018-05-25T01:25:21.920Z,0.00
2018-05-25T01:26:21.921Z,0.00
2018-05-25T01:27:21.913Z,0.00
2018-05-25T01:28:21.929Z,0.00
2018-05-25T01:29:21.903Z,0.00
2018-05-25T01:30:21.889Z,0.00
2018-05-25T02:03:01.116Z,0.00
2018-05-25T02:04:01.085Z,0.00
2018-05-25T02:05:54.035Z,0.00
2018-05-25T02:06:53.998Z,0.00
2018-05-25T02:08:46.914Z,0.00
2018-05-25T02:09:46.898Z,0.00
2018-05-25T02:11:39.809Z,0.00
2018-05-25T02:12:39.780Z,0.00
2018-05-25T02:13:39.773Z,0.00
2018-05-25T02:14:39.767Z,0.00
2018-05-25T02:15:39.757Z,0.00
2018-05-25T02:16:39.764Z,0.00
2018-05-25T02:17:39.768Z,0.00
2018-05-25T02:18:39.741Z,0.00
2018-05-25T02:19:39.733Z,0.00
2018-05-25T02:20:39.739Z,0.00
2018-05-25T02:21:39.724Z,0.00
2018-05-25T02:22:39.717Z,0.00
2018-05-25T02:23:39.710Z,0.00
2018-05-25T02:24:39.702Z,0.00
2018-05-25T02:25:39.702Z,0.00
2018-05-25T02:26:39.697Z,0.00
2018-05-25T02:27:39.688Z,0.00
2018-05-25T02:28:39.686Z,0.00
2018-05-25T02:29:39.680Z,0.00
2018-05-25T02:30:39.678Z,0.00
2018-05-25T02:31:39.665Z,0.00
2018-05-25T02:32:39.667Z,0.00
2018-05-25T02:33:39.660Z,0.00
2018-05-25T02:34:39.667Z,0.00
2018-05-25T02:35:39.653Z,0.00
2018-05-25T02:36:39.663Z,0.00
2018-05-25T02:37:39.640Z,0.00
2018-05-25T02:38:39.670Z,0.00
2018-05-25T02:39:39.629Z,0.00
2018-05-25T02:40:39.635Z,0.00
2018-05-25T02:41:39.622Z,0.00
2018-05-25T02:42:39.621Z,0.00
2018-05-25T02:43:39.615Z,0.00
2018-05-25T02:44:39.609Z,0.00
2018-05-25T02:45:39.608Z,0.00
2018-05-25T02:46:39.599Z,0.00
2018-05-25T02:47:39.598Z,0.00
2018-05-25T02:48:39.592Z,0.00
2018-05-25T02:49:39.584Z,0.00
2018-05-25T02:50:39.585Z,0.00
2018-05-25T02:51:39.577Z,0.00
2018-05-25T02:52:39.568Z,0.00
2018-05-25T02:53:39.576Z,4.00
2018-05-25T02:54:39.551Z,4.00
2018-05-25T02:55:39.556Z,0.00
2018-05-25T02:56:39.552Z,0.00
2018-05-25T02:57:39.551Z,4.00
2018-05-25T02:58:39.547Z,4.00
2018-05-25T02:59:39.546Z,4.00
2018-05-25T03:00:39.525Z,4.00
2018-05-25T03:01:39.525Z,8.00
2018-05-25T03:02:39.529Z,4.00
2018-05-25T03:03:39.535Z,8.00
2018-05-25T03:04:39.527Z,8.00
2018-05-25T03:05:39.501Z,8.00
2018-05-25T03:06:39.507Z,12.00
2018-05-25T03:07:39.502Z,12.00
2018-05-25T03:08:39.497Z,16.00
2018-05-25T03:09:39.494Z,20.00
2018-05-25T03:10:39.483Z,20.00
2018-05-25T03:11:39.480Z,24.00
2018-05-25T03:12:39.482Z,28.00
2018-05-25T03:13:39.474Z,36.00
2018-05-25T03:14:39.473Z,40.00
2018-05-25T03:15:39.461Z,48.00
2018-05-25T03:16:39.462Z,56.00
2018-05-25T03:17:39.470Z,60.00
2018-05-25T03:18:39.449Z,68.00
2018-05-25T03:19:39.444Z,76.00
2018-05-25T03:20:39.439Z,88.00
2018-05-25T03:21:39.436Z,96.00
2018-05-25T03:22:39.444Z,112.00
2018-05-25T03:23:39.420Z,120.00
2018-05-25T03:24:39.429Z,136.00
2018-05-25T03:25:39.423Z,152.00
2018-05-25T03:26:39.417Z,168.00
2018-05-25T03:27:39.409Z,188.00
2018-05-25T03:28:39.401Z,208.00
2018-05-25T03:29:39.397Z,232.00
2018-05-25T03:30:39.392Z,256.00
2018-05-25T03:31:39.377Z,284.00
2018-05-25T03:32:39.382Z,308.00
2018-05-25T03:33:39.376Z,336.00
2018-05-25T03:34:39.375Z,372.00
2018-05-25T03:35:39.390Z,400.00
2018-05-25T03:36:39.366Z,436.00
2018-05-25T03:37:39.364Z,476.00
2018-05-25T03:38:39.359Z,512.00
2018-05-25T03:39:39.352Z,556.00
2018-05-25T03:40:39.361Z,600.00
2018-05-25T03:41:39.340Z,648.00
2018-05-25T03:42:39.337Z,692.00
2018-05-25T03:43:39.345Z,740.00
2018-05-25T03:44:39.330Z,792.00
2018-05-25T03:45:39.324Z,840.00
2018-05-25T03:46:39.321Z,892.00
2018-05-25T03:47:39.312Z,948.00
2018-05-25T03:48:39.311Z,1004.00
2018-05-25T03:49:39.305Z,1064.00
2018-05-25T03:50:39.301Z,1124.00
2018-05-25T03:51:39.300Z,1188.00
2018-05-25T03:52:39.292Z,1252.00
2018-05-25T03:53:39.288Z,1324.00
2018-05-25T03:54:39.282Z,1396.00
2018-05-25T03:55:39.267Z,1464.00
2018-05-25T03:56:39.275Z,1536.00
2018-05-25T03:57:39.271Z,1608.00
2018-05-25T03:58:39.258Z,1680.00
2018-05-25T03:59:39.259Z,1744.00
2018-05-25T04:00:39.257Z,1820.00
2018-05-25T04:01:39.268Z,1900.00
2018-05-25T04:02:39.251Z,1972.00
2018-05-25T04:03:39.239Z,2048.00
2018-05-25T04:04:39.253Z,2124.00
2018-05-25T04:05:39.237Z,2192.00
2018-05-25T04:06:39.231Z,2268.00
2018-05-25T04:07:39.219Z,2348.00
2018-05-25T04:08:39.221Z,2424.00
2018-05-25T04:09:39.222Z,2504.00
2018-05-25T04:10:39.218Z,2576.00
2018-05-25T04:11:39.211Z,2656.00
2018-05-25T04:12:39.207Z,2736.00
2018-05-25T04:13:39.204Z,2804.00
2018-05-25T04:14:39.201Z,2884.00
2018-05-25T04:15:39.198Z,2960.00
2018-05-25T04:16:39.191Z,3036.00
2018-05-25T04:17:39.184Z,3112.00
2018-05-25T04:18:39.183Z,3184.00
2018-05-25T04:19:39.198Z,3264.00
2018-05-25T04:20:39.208Z,3332.00
2018-05-25T04:21:39.174Z,3408.00
2018-05-25T04:22:39.171Z,3476.00
2018-05-25T04:23:39.177Z,3552.00
2018-05-25T04:24:39.162Z,3620.00
2018-05-25T04:25:39.157Z,3696.00
2018-05-25T04:26:39.176Z,3772.00
2018-05-25T04:27:39.149Z,3844.00
2018-05-25T04:28:39.143Z,3924.00
2018-05-25T04:29:39.141Z,3992.00
2018-05-25T04:30:39.139Z,4044.00
2018-05-25T04:31:39.144Z,4104.00
2018-05-25T04:32:39.144Z,4156.00
2018-05-25T04:33:39.128Z,4212.00
2018-05-25T04:34:39.127Z,4272.00
2018-05-25T04:35:39.135Z,4332.00
2018-05-25T04:36:39.106Z,4380.00
2018-05-25T04:37:39.122Z,4488.00
2018-05-25T04:38:39.110Z,4540.00
2018-05-25T04:39:39.108Z,4616.00
2018-05-25T04:40:39.113Z,5204.00
2018-05-25T04:41:39.106Z,5260.00
2018-05-25T04:42:39.096Z,5588.00
2018-05-25T04:43:39.120Z,6180.00
2018-05-25T04:44:39.101Z,6348.00
2018-05-25T04:45:39.090Z,6064.00
2018-05-25T04:46:39.084Z,5392.00
2018-05-25T04:47:39.085Z,5224.00
2018-05-25T04:48:39.083Z,5080.00
2018-05-25T04:49:39.096Z,5352.00
2018-05-25T04:50:39.077Z,5692.00
2018-05-25T04:51:39.072Z,5848.00
2018-05-25T04:52:39.096Z,5672.00
2018-05-25T04:53:39.093Z,5500.00
2018-05-25T04:54:39.066Z,5520.00
2018-05-25T04:55:39.061Z,5740.00
2018-05-25T04:56:39.060Z,5828.00
2018-05-25T04:57:39.054Z,5712.00
2018-05-25T04:58:39.066Z,5716.00
2018-05-25T04:59:39.050Z,5784.00
2018-05-25T05:00:39.042Z,5792.00
2018-05-25T05:01:39.046Z,5700.00
2018-05-25T05:02:39.042Z,5692.00
2018-05-25T05:03:39.040Z,5720.00
2018-05-25T05:04:39.034Z,5764.00
2018-05-25T05:05:39.036Z,5840.00
2018-05-25T05:06:39.031Z,5940.00
2018-05-25T05:07:39.027Z,6000.00
2018-05-25T05:08:39.025Z,6048.00
2018-05-25T05:09:39.056Z,6172.00
2018-05-25T05:10:39.034Z,6816.00
2018-05-25T05:11:39.019Z,6996.00
2018-05-25T05:12:39.045Z,6920.00
2018-05-25T05:13:39.020Z,6912.00
2018-05-25T05:14:39.008Z,6992.00
2018-05-25T05:15:39.026Z,7040.00
2018-05-25T05:16:39.009Z,7572.00
2018-05-25T05:17:39.004Z,7540.00
2018-05-25T05:18:39.010Z,7564.00
2018-05-25T05:19:38.998Z,7744.00
2018-05-25T05:20:38.995Z,7764.00
2018-05-25T05:21:39.014Z,7864.00
2018-05-25T05:22:39.009Z,7624.00
2018-05-25T05:23:38.987Z,7492.00
2018-05-25T05:24:38.986Z,7284.00
2018-05-25T05:25:38.986Z,7272.00
2018-05-25T05:26:38.988Z,7324.00
2018-05-25T05:27:38.979Z,7204.00
2018-05-25T05:28:38.980Z,7600.00
2018-05-25T05:29:38.977Z,9216.00
2018-05-25T05:30:38.976Z,9476.00
2018-05-25T05:31:38.975Z,9584.00
2018-05-25T05:32:38.970Z,9244.00
2018-05-25T05:33:39.017Z,10216.00
2018-05-25T05:34:38.969Z,10000.00
2018-05-25T05:35:38.963Z,10400.00
2018-05-25T05:36:38.962Z,10176.00
2018-05-25T05:37:38.960Z,9968.00
2018-05-25T05:38:38.961Z,9528.00
2018-05-25T05:39:38.947Z,9444.00
2018-05-25T05:40:38.953Z,9008.00
2018-05-25T05:41:38.956Z,8400.00
2018-05-25T05:42:38.961Z,8308.00
2018-05-25T05:43:38.951Z,8272.00
2018-05-25T05:44:38.964Z,8232.00
2018-05-25T05:45:38.947Z,8144.00
2018-05-25T05:46:38.945Z,8092.00
2018-05-25T05:47:38.946Z,8160.00
2018-05-25T05:48:38.942Z,8148.00
2018-05-25T05:49:38.939Z,8192.00
2018-05-25T05:50:38.941Z,8304.00
2018-05-25T05:51:38.935Z,8352.00
2018-05-25T05:52:38.951Z,8364.00
2018-05-25T05:53:38.935Z,8336.00
2018-05-25T05:54:38.933Z,8316.00
2018-05-25T05:55:38.946Z,8368.00
2018-05-25T05:56:38.925Z,8420.00
2018-05-25T05:57:38.929Z,8488.00
2018-05-25T05:58:38.926Z,8544.00
2018-05-25T05:59:38.936Z,8592.00
2018-05-25T06:00:38.915Z,8596.00
2018-05-25T06:01:38.922Z,8596.00
2018-05-25T06:02:38.922Z,8632.00
2018-05-25T06:03:38.920Z,8668.00
2018-05-25T06:04:38.929Z,8692.00
2018-05-25T06:05:38.916Z,8732.00
2018-05-25T06:06:38.914Z,8756.00
2018-05-25T06:07:38.913Z,8800.00
2018-05-25T06:08:38.928Z,8872.00
2018-05-25T06:09:38.913Z,8940.00
2018-05-25T06:10:38.911Z,8992.00
2018-05-25T06:11:38.906Z,9052.00
2018-05-25T06:12:38.907Z,9108.00
2018-05-25T06:13:38.929Z,9152.00
2018-05-25T06:14:38.904Z,9180.00
2018-05-25T06:15:38.895Z,9204.00
2018-05-25T06:16:38.921Z,9248.00
2018-05-25T06:17:38.897Z,9296.00
2018-05-25T06:18:38.898Z,9320.00
2018-05-25T06:19:38.900Z,9356.00
2018-05-25T06:20:38.905Z,9404.00
2018-05-25T06:21:38.895Z,9464.00
2018-05-25T06:22:38.894Z,9508.00
2018-05-25T06:23:38.894Z,9520.00
2018-05-25T06:24:38.911Z,9544.00
2018-05-25T06:25:38.915Z,9548.00
2018-05-25T06:26:38.892Z,9560.00
2018-05-25T06:27:38.889Z,9576.00
2018-05-25T06:28:38.881Z,9580.00
2018-05-25T06:29:38.886Z,9600.00
2018-05-25T06:30:38.887Z,9640.00
2018-05-25T06:31:38.884Z,9680.00
2018-05-25T06:32:38.897Z,9704.00
2018-05-25T06:33:38.898Z,9740.00
2018-05-25T06:34:38.886Z,9776.00
2018-05-25T06:35:38.885Z,9804.00
2018-05-25T06:36:38.884Z,9844.00
2018-05-25T06:37:38.883Z,9876.00
2018-05-25T06:38:38.888Z,9900.00
2018-05-25T06:39:38.883Z,9924.00
2018-05-25T06:40:38.903Z,9932.00
2018-05-25T06:41:38.877Z,9952.00
2018-05-25T06:42:38.877Z,9972.00
2018-05-25T06:43:38.883Z,10016.00
2018-05-25T06:44:38.885Z,10056.00
2018-05-25T06:45:38.889Z,10076.00
2018-05-25T06:46:38.886Z,10108.00
2018-05-25T06:47:38.885Z,10140.00
2018-05-25T06:48:38.891Z,10176.00
2018-05-25T06:49:38.897Z,10212.00
2018-05-25T06:50:38.909Z,10244.00
2018-05-25T06:51:38.885Z,10284.00
2018-05-25T06:52:38.886Z,10308.00
2018-05-25T06:53:38.886Z,10336.00
2018-05-25T06:54:38.884Z,10356.00
2018-05-25T06:55:38.889Z,10364.00
2018-05-25T06:56:38.889Z,10368.00
2018-05-25T06:57:38.889Z,10392.00
2018-05-25T06:58:38.895Z,10512.00
2018-05-25T06:59:38.891Z,10900.00
2018-05-25T07:00:38.893Z,11552.00
2018-05-25T07:01:38.896Z,12368.00
2018-05-25T07:02:38.894Z,18944.00
2018-05-25T07:03:38.911Z,42848.00
2018-05-25T07:04:38.901Z,62720.00
2018-05-25T07:05:38.898Z,61216.00
2018-05-25T07:06:38.903Z,57760.00
2018-05-25T07:07:38.904Z,55616.00
2018-05-25T07:08:38.912Z,55872.00
2018-05-25T07:09:38.923Z,55392.00
2018-05-25T07:10:38.919Z,55936.00
2018-05-25T07:11:38.936Z,57664.00
2018-05-25T07:12:38.931Z,57984.00
2018-05-25T07:13:38.961Z,56128.00
2018-05-25T07:14:38.945Z,57056.00
2018-05-25T07:15:38.955Z,61152.00
2018-05-25T07:16:38.963Z,57376.00
2018-05-25T07:17:38.972Z,60992.00
2018-05-25T07:18:38.981Z,61536.00
2018-05-25T07:19:38.993Z,63776.00
2018-05-25T07:20:38.999Z,67360.00
2018-05-25T07:21:39.012Z,62912.00
2018-05-25T07:22:39.020Z,60448.00
2018-05-25T07:23:39.058Z,62144.00
2018-05-25T07:24:39.054Z,62976.00
2018-05-25T07:25:39.046Z,72352.00
2018-05-25T07:26:39.068Z,73056.00
2018-05-25T07:27:39.079Z,69504.00
2018-05-25T07:28:39.096Z,81376.00
2018-05-25T07:29:39.108Z,92256.00
2018-05-25T07:30:39.117Z,84256.00
2018-05-25T07:31:39.122Z,80576.00
2018-05-25T07:32:39.184Z,79456.00
2018-05-25T07:33:39.158Z,75392.00
2018-05-25T07:34:39.179Z,76736.00
2018-05-25T07:35:39.185Z,79264.00
2018-05-25T07:36:39.201Z,79456.00
2018-05-25T07:37:39.212Z,82720.00
2018-05-25T07:38:39.227Z,75424.00
2018-05-25T07:39:39.246Z,76096.00
2018-05-25T07:40:39.257Z,81600.00
2018-05-25T07:41:39.271Z,79360.00
2018-05-25T07:42:39.289Z,79168.00
2018-05-25T07:43:39.300Z,74208.00
2018-05-25T07:44:39.316Z,73760.00
2018-05-25T07:45:39.358Z,75808.00
2018-05-25T07:46:39.366Z,78912.00
2018-05-25T07:47:39.365Z,83392.00
2018-05-25T07:48:39.381Z,86464.00
2018-05-25T07:49:39.410Z,83168.00
2018-05-25T07:50:39.402Z,86496.00
2018-05-25T07:51:39.428Z,91808.00
2018-05-25T07:52:39.438Z,94112.00
2018-05-25T07:53:39.451Z,85280.00
2018-05-25T07:54:39.475Z,84000.00
2018-05-25T07:55:39.487Z,86496.00
2018-05-25T07:56:39.507Z,84544.00
2018-05-25T07:57:39.518Z,82368.00
2018-05-25T07:58:39.538Z,85888.00
2018-05-25T07:59:39.550Z,87872.00
2018-05-25T08:00:39.578Z,87872.00
2018-05-25T08:01:39.577Z,84352.00
2018-05-25T08:02:39.605Z,79712.00
2018-05-25T08:03:39.651Z,79104.00
2018-05-25T08:04:39.651Z,78560.00
2018-05-25T08:05:39.649Z,78272.00
2018-05-25T08:06:39.671Z,76256.00
2018-05-25T08:07:39.681Z,82208.00
2018-05-25T08:08:39.693Z,81376.00
2018-05-25T08:09:39.721Z,77536.00
2018-05-25T08:10:39.741Z,78464.00
2018-05-25T08:11:39.756Z,80704.00
2018-05-25T08:12:39.775Z,79872.00
2018-05-25T08:13:39.795Z,72416.00
2018-05-25T08:14:39.807Z,79936.00
2018-05-25T08:15:39.823Z,81344.00
2018-05-25T08:16:39.840Z,80224.00
2018-05-25T08:17:39.852Z,95232.00
2018-05-25T08:18:39.935Z,107584.00
2018-05-25T08:19:40.007Z,105440.00
2018-05-25T08:20:40.445Z,104128.00
2018-05-25T08:21:40.416Z,104608.00
2018-05-25T08:22:40.588Z,99488.00
2018-05-25T08:23:40.327Z,108256.00
2018-05-25T08:24:40.625Z,105856.00
2018-05-25T08:25:40.298Z,96032.00
2018-05-25T08:26:40.293Z,94528.00
2018-05-25T08:27:40.466Z,99712.00
2018-05-25T08:28:40.647Z,104480.00
2018-05-25T08:29:40.679Z,100320.00
2018-05-25T08:30:40.941Z,106176.00
2018-05-25T08:31:40.289Z,101824.00
2018-05-25T08:32:40.744Z,91424.00
2018-05-25T08:33:40.550Z,92384.00
2018-05-25T08:34:40.681Z,93952.00
2018-05-25T08:35:40.290Z,92448.00
2018-05-25T08:36:40.432Z,89728.00
2018-05-25T08:37:40.496Z,94496.00
2018-05-25T08:38:40.674Z,93088.00
2018-05-25T08:39:40.559Z,86752.00
2018-05-25T08:40:40.517Z,84448.00
2018-05-25T08:41:40.473Z,86240.00
2018-05-25T08:42:40.544Z,99264.00
2018-05-25T08:43:40.813Z,96704.00
2018-05-25T08:44:40.953Z,95392.00
2018-05-25T08:45:40.499Z,92352.00
2018-05-25T08:46:40.905Z,95360.00
2018-05-25T08:47:40.527Z,99616.00
2018-05-25T08:48:40.595Z,102976.00
2018-05-25T08:49:40.817Z,107744.00
2018-05-25T08:50:40.550Z,109312.00
2018-05-25T08:51:40.550Z,110976.00
2018-05-25T08:52:40.598Z,110816.00
2018-05-25T08:53:40.581Z,104768.00
2018-05-25T08:54:40.653Z,112960.00
2018-05-25T08:55:40.570Z,114624.00
2018-05-25T08:56:40.657Z,109152.00
2018-05-25T08:57:40.652Z,115904.00
2018-05-25T08:58:40.651Z,114304.00
2018-05-25T08:59:40.679Z,104864.00
2018-05-25T09:00:40.725Z,104672.00
2018-05-25T09:01:40.726Z,100576.00
2018-05-25T09:02:40.760Z,97472.00
2018-05-25T09:03:40.762Z,98400.00
2018-05-25T09:04:40.759Z,96320.00
2018-05-25T09:05:40.777Z,88448.00
2018-05-25T09:06:40.911Z,81536.00
2018-05-25T09:07:40.835Z,83360.00
2018-05-25T09:08:40.863Z,96896.00
2018-05-25T09:09:40.877Z,93440.00
2018-05-25T09:10:40.936Z,92352.00
2018-05-25T09:11:40.950Z,95104.00
2018-05-25T09:12:41.288Z,83328.00
2018-05-25T09:13:40.986Z,76320.00
2018-05-25T09:14:41.012Z,71200.00
2018-05-25T09:15:41.013Z,74208.00
2018-05-25T09:16:41.138Z,79904.00
2018-05-25T09:17:41.067Z,75904.00
2018-05-25T09:18:41.150Z,78016.00
2018-05-25T09:19:41.114Z,71008.00
2018-05-25T09:20:41.158Z,69056.00
2018-05-25T09:21:41.233Z,83136.00
2018-05-25T09:22:41.197Z,78560.00
2018-05-25T09:23:41.252Z,73120.00
2018-05-25T09:24:41.269Z,80160.00
2018-05-25T09:25:41.251Z,79168.00
2018-05-25T09:26:41.281Z,77888.00
2018-05-25T09:27:41.327Z,78912.00
2018-05-25T09:28:41.372Z,76448.00
2018-05-25T09:29:41.376Z,68672.00
2018-05-25T09:30:41.393Z,86464.00
2018-05-25T09:31:41.483Z,81312.00
2018-05-25T09:32:41.432Z,80000.00
2018-05-25T09:33:41.501Z,84448.00
2018-05-25T09:34:41.500Z,92416.00
2018-05-25T09:35:41.469Z,89472.00
2018-05-25T09:36:41.563Z,29472.00
2018-05-25T09:37:41.544Z,71040.00
2018-05-25T09:38:41.578Z,28896.00
2018-05-25T09:39:41.633Z,19456.00
2018-05-25T09:40:41.589Z,27360.00
2018-05-25T09:41:41.662Z,17576.00
2018-05-25T09:42:41.643Z,17572.00
2018-05-25T09:43:41.701Z,17616.00
2018-05-25T09:44:41.676Z,17108.00
2018-05-25T09:45:41.684Z,17132.00
2018-05-25T09:46:41.757Z,19136.00
2018-05-25T09:47:41.718Z,69600.00
2018-05-25T09:48:41.762Z,80928.00
2018-05-25T09:49:41.757Z,51552.00
2018-05-25T09:50:41.741Z,19136.00
2018-05-25T09:51:41.779Z,14684.00
2018-05-25T09:52:41.779Z,19680.00
2018-05-25T09:53:41.886Z,11120.00
2018-05-25T09:54:41.833Z,11100.00
2018-05-25T09:55:41.818Z,10796.00
2018-05-25T09:56:41.900Z,10252.00
2018-05-25T09:57:41.847Z,10740.00
2018-05-25T09:58:41.917Z,11664.00
2018-05-25T09:59:41.887Z,13040.00
2018-05-25T10:00:41.896Z,16112.00
2018-05-25T10:01:41.904Z,21216.00
2018-05-25T10:02:41.918Z,25600.00
2018-05-25T10:03:41.949Z,24736.00
2018-05-25T10:04:41.930Z,75072.00
2018-05-25T10:05:41.921Z,18176.00
2018-05-25T10:06:42.031Z,16752.00
2018-05-25T10:07:41.989Z,25376.00
2018-05-25T10:08:41.980Z,90656.00
2018-05-25T10:09:41.966Z,67264.00
2018-05-25T10:10:42.080Z,86144.00
2018-05-25T10:11:42.077Z,94752.00
2018-05-25T10:12:42.007Z,101664.00
2018-05-25T10:13:42.041Z,24896.00
2018-05-25T10:14:42.091Z,22112.00
2018-05-25T10:15:42.050Z,27872.00
2018-05-25T10:16:42.083Z,17612.00
2018-05-25T10:17:42.164Z,16212.00
2018-05-25T10:18:42.212Z,16032.00
2018-05-25T10:19:42.162Z,15400.00
2018-05-25T10:20:42.258Z,15240.00
2018-05-25T10:21:42.167Z,16328.00
2018-05-25T10:22:42.175Z,16004.00
2018-05-25T10:23:42.267Z,16260.00
2018-05-25T10:24:42.114Z,18688.00
2018-05-25T10:25:42.126Z,18976.00
2018-05-25T10:26:42.170Z,20896.00
2018-05-25T10:27:42.164Z,19296.00
2018-05-25T10:28:42.220Z,20224.00
2018-05-25T10:29:42.183Z,19808.00
2018-05-25T10:30:42.260Z,19200.00
2018-05-25T10:31:42.180Z,19744.00
2018-05-25T10:32:42.219Z,23424.00
2018-05-25T10:33:42.264Z,29696.00
2018-05-25T10:34:42.314Z,24416.00
2018-05-25T10:35:42.197Z,22432.00
2018-05-25T10:36:42.248Z,23200.00
2018-05-25T10:37:42.219Z,23040.00
2018-05-25T10:38:42.422Z,25088.00
2018-05-25T10:39:42.251Z,26944.00
2018-05-25T10:40:42.247Z,27840.00
2018-05-25T10:41:42.311Z,29504.00
2018-05-25T10:42:42.285Z,29664.00
2018-05-25T10:43:42.369Z,30208.00
2018-05-25T10:44:42.283Z,83744.00
2018-05-25T10:45:42.282Z,27936.00
2018-05-25T10:46:42.340Z,28032.00
2018-05-25T10:47:42.325Z,29184.00
2018-05-25T10:48:42.368Z,35264.00
2018-05-25T10:49:42.337Z,89696.00
2018-05-25T10:50:42.383Z,91968.00
2018-05-25T10:51:42.430Z,90720.00
2018-05-25T10:52:42.339Z,89024.00
2018-05-25T10:53:42.389Z,28288.00
2018-05-25T10:54:42.388Z,90976.00
2018-05-25T10:55:42.353Z,92608.00
2018-05-25T10:56:42.381Z,91648.00
2018-05-25T10:57:42.384Z,94080.00
2018-05-25T10:58:42.450Z,98016.00
2018-05-25T10:59:42.393Z,97504.00
2018-05-25T11:00:42.504Z,94944.00
2018-05-25T11:01:42.480Z,96608.00
2018-05-25T11:02:42.533Z,90464.00
2018-05-25T11:03:42.533Z,87936.00
2018-05-25T11:04:42.476Z,93792.00
2018-05-25T11:05:42.484Z,95968.00
2018-05-25T11:06:42.583Z,90432.00
2018-05-25T11:07:42.522Z,86080.00
2018-05-25T11:08:42.542Z,85696.00
2018-05-25T11:09:42.576Z,85408.00
2018-05-25T11:10:42.598Z,90176.00
2018-05-25T11:11:42.642Z,94176.00
2018-05-25T11:12:42.673Z,93152.00
2018-05-25T11:13:42.619Z,91328.00
2018-05-25T11:14:42.687Z,91392.00
2018-05-25T11:15:42.657Z,92352.00
2018-05-25T11:16:42.677Z,89920.00
2018-05-25T11:17:42.702Z,89664.00
2018-05-25T11:18:42.755Z,96512.00
2018-05-25T11:19:42.743Z,65664.00
2018-05-25T11:20:42.759Z,94464.00
2018-05-25T11:21:42.821Z,91264.00
2018-05-25T11:22:42.806Z,90592.00
2018-05-25T11:23:42.815Z,93632.00
2018-05-25T11:24:42.866Z,92512.00
2018-05-25T11:25:42.854Z,92864.00
2018-05-25T11:26:42.902Z,93952.00
2018-05-25T11:27:42.897Z,93472.00
2018-05-25T11:28:42.960Z,93472.00
2018-05-25T11:29:43.041Z,96512.00
2018-05-25T11:30:42.968Z,97600.00
2018-05-25T11:31:42.998Z,94432.00
2018-05-25T11:32:43.035Z,92192.00
2018-05-25T11:33:43.060Z,89280.00
2018-05-25T11:34:43.121Z,89888.00
2018-05-25T11:35:43.070Z,90272.00
2018-05-25T11:36:43.143Z,87840.00
2018-05-25T11:37:43.187Z,88448.00
2018-05-25T11:38:43.127Z,89888.00
2018-05-25T11:39:43.253Z,91712.00
2018-05-25T11:40:43.229Z,91040.00
2018-05-25T11:41:43.184Z,87008.00
2018-05-25T11:42:43.223Z,83552.00
2018-05-25T11:43:43.307Z,86048.00
2018-05-25T11:44:43.301Z,86432.00
2018-05-25T11:45:43.276Z,87136.00
2018-05-25T11:46:43.338Z,94752.00
2018-05-25T11:47:43.379Z,94880.00
2018-05-25T11:48:43.418Z,92352.00
2018-05-25T11:49:43.403Z,85024.00
2018-05-25T11:50:43.395Z,73440.00
2018-05-25T11:51:43.457Z,75680.00
2018-05-25T11:52:43.530Z,81664.00
2018-05-25T11:53:43.604Z,82336.00
2018-05-25T11:54:43.591Z,81824.00
2018-05-25T11:55:43.486Z,78784.00
2018-05-25T11:56:43.548Z,82400.00
2018-05-25T11:57:43.545Z,86144.00
2018-05-25T11:58:43.560Z,60992.00
2018-05-25T11:59:43.581Z,59392.00
2018-05-25T12:00:43.625Z,55200.00
2018-05-25T12:01:43.623Z,49664.00
2018-05-25T12:02:43.656Z,43712.00
2018-05-25T12:03:43.696Z,91520.00
2018-05-25T12:04:43.670Z,86400.00
2018-05-25T12:05:43.696Z,87328.00
2018-05-25T12:06:43.901Z,84768.00
2018-05-25T12:07:43.747Z,85056.00
2018-05-25T12:08:43.767Z,88960.00
2018-05-25T12:09:43.755Z,85408.00
2018-05-25T12:10:43.796Z,63840.00
2018-05-25T12:11:43.857Z,79168.00
2018-05-25T12:12:43.830Z,81792.00
2018-05-25T12:13:43.849Z,82880.00
2018-05-25T12:14:43.881Z,84480.00
2018-05-25T12:15:43.853Z,83744.00
2018-05-25T12:16:43.913Z,78592.00
2018-05-25T12:17:43.947Z,79200.00
2018-05-25T12:18:43.955Z,84928.00
2018-05-25T12:19:43.956Z,83200.00
2018-05-25T12:20:43.939Z,79072.00
2018-05-25T12:21:44.013Z,58848.00
2018-05-25T12:22:44.072Z,55104.00
2018-05-25T12:23:44.041Z,77888.00
2018-05-25T12:24:44.093Z,73632.00
2018-05-25T12:25:44.030Z,82912.00
2018-05-25T12:26:44.144Z,85824.00
2018-05-25T12:27:44.104Z,90784.00
2018-05-25T12:28:44.127Z,88672.00
2018-05-25T12:29:44.096Z,81792.00
2018-05-25T12:30:44.159Z,61696.00
2018-05-25T12:31:44.192Z,20928.00
2018-05-25T12:32:44.188Z,10508.00
2018-05-25T12:33:44.203Z,10236.00
2018-05-25T12:34:44.268Z,9756.00
2018-05-25T12:35:44.191Z,9132.00
2018-05-25T12:36:44.260Z,8988.00
2018-05-25T12:37:44.219Z,8936.00
2018-05-25T12:38:44.273Z,9272.00
2018-05-25T12:39:44.257Z,9244.00
2018-05-25T12:40:44.264Z,9300.00
2018-05-25T12:41:44.439Z,9368.00
2018-05-25T12:42:44.357Z,9124.00
2018-05-25T12:43:44.343Z,9068.00